Time;durP1;ratioP1;P1;durP2;ratioP2;P2;SDS_P1;SDS_P2;PMS_P1;PMS_P2;Temp;Humidity;BMP_temperature;BMP_pressure;BME280_temperature;BME280_humidity;BME280_pressure;Samples;Min_cycle;Max_cycle;Signal;HPM_P1;HPM_P2
2022/08/18 00:01:43;;;;;;;12.32;10.88;;;23.20;99.90;;;;;;5066485;28;20195;-68
2022/08/18 00:04:10;;;;;;;13.98;11.52;;;23.10;99.90;;;;;;5061534;28;20190;-68
2022/08/18 00:06:57;;;;;;;12.70;10.60;;;23.10;99.90;;;;;;5065168;28;20840;-68
2022/08/18 00:09:24;;;;;;;13.45;10.18;;;23.10;99.90;;;;;;5069634;28;20307;-67
2022/08/18 00:11:57;;;;;;;12.02;9.82;;;23.00;99.90;;;;;;5047597;28;20693;-68
2022/08/18 00:14:24;;;;;;;11.82;10.27;;;23.00;99.90;;;;;;5069564;28;20201;-67
2022/08/18 00:16:52;;;;;;;13.95;10.50;;;22.90;99.90;;;;;;5067501;28;20225;-68
2022/08/18 00:19:21;;;;;;;11.30;9.80;;;22.90;99.90;;;;;;5068625;28;20739;-68
2022/08/18 00:22:08;;;;;;;11.85;10.00;;;22.90;99.90;;;;;;5065166;28;20260;-68
2022/08/18 00:24:40;;;;;;;13.82;10.38;;;22.80;99.90;;;;;;5052760;28;20230;-69
2022/08/18 00:27:30;;;;;;;12.82;10.32;;;22.90;99.90;;;;;;5069233;28;20237;-68
2022/08/18 00:30:00;;;;;;;11.18;9.98;;;22.80;99.90;;;;;;5065671;28;20214;-67
2022/08/18 00:32:33;;;;;;;13.38;10.50;;;22.90;99.90;;;;;;5065586;28;20195;-68
2022/08/18 00:35:12;;;;;;;13.02;9.77;;;23.00;99.90;;;;;;5065838;28;20203;-68
2022/08/18 00:37:40;;;;;;;13.10;10.18;;;23.00;99.90;;;;;;5060611;28;20578;-68
2022/08/18 00:40:11;;;;;;;10.90;9.65;;;23.00;99.90;;;;;;5066184;28;20222;-67
2022/08/18 00:42:44;;;;;;;12.25;9.50;;;23.00;99.90;;;;;;5069051;28;20201;-68
2022/08/18 00:45:26;;;;;;;10.63;9.50;;;23.00;99.90;;;;;;5069022;28;20232;-68
2022/08/18 00:47:53;;;;;;;11.40;9.02;;;22.90;99.90;;;;;;5058788;28;20571;-68
2022/08/18 00:50:26;;;;;;;11.02;8.85;;;23.00;99.90;;;;;;5067635;28;20199;-69
2022/08/18 00:52:59;;;;;;;12.32;9.05;;;22.90;99.90;;;;;;5068750;28;20277;-68
2022/08/18 00:55:28;;;;;;;10.90;9.15;;;22.90;99.90;;;;;;5067394;28;20214;-67
2022/08/18 00:58:07;;;;;;;11.30;9.43;;;23.00;99.90;;;;;;5064928;28;20209;-67
2022/08/18 01:00:34;;;;;;;9.95;8.70;;;22.90;99.90;;;;;;5061200;28;20214;-68
2022/08/18 01:03:07;;;;;;;10.60;8.60;;;22.90;99.90;;;;;;5065342;28;20194;-68
2022/08/18 01:05:48;;;;;;;13.63;8.48;;;22.90;99.90;;;;;;5051821;28;20545;-68
2022/08/18 01:08:16;;;;;;;11.60;8.68;;;23.00;99.90;;;;;;5054748;28;20199;-68
2022/08/18 01:10:54;;;;;;;10.63;9.00;;;23.00;99.90;;;;;;5052361;28;20237;-68
2022/08/18 01:13:26;;;;;;;9.27;7.95;;;23.00;99.90;;;;;;5052057;28;20199;-68
2022/08/18 01:15:53;;;;;;;9.32;8.07;;;22.90;99.90;;;;;;5051791;28;20219;-68
2022/08/18 01:24:11;;;;;;;15.07;10.90;;;22.70;99.90;;;;;;5051915;28;20195;-67
2022/08/18 01:26:44;;;;;;;12.27;10.18;;;22.70;99.90;;;;;;5051454;28;20214;-68
2022/08/18 01:29:11;;;;;;;14.32;11.70;;;22.70;99.90;;;;;;5052041;28;20290;-68
2022/08/18 01:31:53;;;;;;;14.35;11.40;;;22.70;99.90;;;;;;5055937;28;20205;-68
2022/08/18 01:34:24;;;;;;;14.73;11.48;;;22.70;99.90;;;;;;5051900;28;20202;-68
2022/08/18 01:36:52;;;;;;;12.98;11.30;;;22.80;99.90;;;;;;5051722;28;20215;-68
2022/08/18 01:39:20;;;;;;;12.73;11.02;;;22.80;99.90;;;;;;5033926;28;20217;-68
2022/08/18 01:42:07;;;;;;;16.80;12.35;;;22.80;99.90;;;;;;5054648;28;20245;-66
2022/08/18 01:44:34;;;;;;;17.33;12.40;;;22.80;99.90;;;;;;5051685;28;20191;-67
2022/08/18 01:47:01;;;;;;;13.63;12.05;;;22.60;99.90;;;;;;5051303;28;20276;-68
2022/08/18 01:49:27;;;;;;;11.88;10.57;;;22.60;99.90;;;;;;5055308;28;20194;-68
2022/08/18 01:51:57;;;;;;;14.70;11.38;;;22.60;99.90;;;;;;5051357;28;20616;-68
2022/08/18 01:54:28;;;;;;;14.85;11.85;;;22.60;99.90;;;;;;5051393;28;20678;-69
2022/08/18 01:56:55;;;;;;;14.80;11.23;;;22.70;99.90;;;;;;5033355;28;20223;-68
2022/08/18 01:59:22;;;;;;;14.82;11.50;;;22.70;99.90;;;;;;5036562;28;20219;-69
2022/08/18 02:01:55;;;;;;;14.25;11.77;;;22.70;99.90;;;;;;5051253;28;20249;-67
2022/08/18 02:04:27;;;;;;;15.93;11.32;;;22.50;99.90;;;;;;5051246;28;20569;-68
2022/08/18 02:07:06;;;;;;;12.73;10.82;;;22.40;99.90;;;;;;5050880;28;20206;-68
2022/08/18 02:09:34;;;;;;;15.25;11.35;;;22.50;99.90;;;;;;5051414;28;20202;-68
2022/08/18 02:12:00;;;;;;;17.85;10.85;;;22.30;99.90;;;;;;5051109;28;20221;-68
2022/08/18 02:14:28;;;;;;;17.35;11.15;;;22.30;99.90;;;;;;5050632;28;20195;-67
2022/08/18 02:16:58;;;;;;;14.63;10.95;;;22.30;99.90;;;;;;5050406;28;20227;-68
2022/08/18 02:19:42;;;;;;;14.63;11.82;;;22.30;99.90;;;;;;5050934;28;20226;-67
2022/08/18 02:22:15;;;;;;;13.15;9.68;;;22.30;99.90;;;;;;5050820;28;20206;-66
2022/08/18 02:24:42;;;;;;;12.60;10.30;;;22.30;99.90;;;;;;5050895;28;20198;-68
2022/08/18 02:27:10;;;;;;;11.88;10.05;;;22.40;99.90;;;;;;5050342;28;20226;-67
2022/08/18 02:29:37;;;;;;;12.05;10.02;;;22.30;99.90;;;;;;5050809;28;20194;-68
2022/08/18 02:32:04;;;;;;;11.52;9.48;;;22.30;99.90;;;;;;5050343;28;20667;-68
2022/08/18 02:34:31;;;;;;;12.20;9.75;;;22.40;99.90;;;;;;5050602;28;20194;-68
2022/08/18 02:36:59;;;;;;;12.73;10.00;;;22.40;99.90;;;;;;5050282;28;20218;-68
2022/08/18 02:39:26;;;;;;;13.32;9.80;;;22.40;99.90;;;;;;5050198;28;20245;-67
2022/08/18 02:41:53;;;;;;;10.70;9.50;;;22.40;99.90;;;;;;5050596;28;20278;-68
2022/08/18 02:44:20;;;;;;;12.23;9.73;;;22.40;99.90;;;;;;5050854;28;20198;-68
2022/08/18 02:46:52;;;;;;;12.40;9.70;;;22.40;99.90;;;;;;5049997;28;20234;-68
2022/08/18 02:49:19;;;;;;;16.63;10.70;;;22.50;99.90;;;;;;5050196;28;20195;-66
2022/08/18 02:51:46;;;;;;;13.43;10.27;;;22.50;99.90;;;;;;5050239;28;20209;-68
2022/08/18 02:54:12;;;;;;;13.52;10.20;;;22.50;99.90;;;;;;5050053;28;20195;-68
2022/08/18 02:56:40;;;;;;;12.88;10.30;;;22.50;99.90;;;;;;5049614;28;20644;-67
2022/08/18 02:59:11;;;;;;;11.45;9.90;;;22.50;99.90;;;;;;5050506;28;20199;-67
2022/08/18 03:01:41;;;;;;;11.85;9.85;;;22.50;99.90;;;;;;5050119;28;20190;-68
2022/08/18 03:04:11;;;;;;;14.10;9.75;;;22.50;99.90;;;;;;5050104;28;20259;-68
2022/08/18 03:06:38;;;;;;;13.38;11.27;;;22.40;99.90;;;;;;5049441;28;20215;-68
2022/08/18 03:09:06;;;;;;;13.23;10.05;;;22.40;99.90;;;;;;5050185;28;20195;-68
2022/08/18 03:11:32;;;;;;;13.07;10.40;;;22.40;99.90;;;;;;5050086;28;20191;-67
2022/08/18 03:14:00;;;;;;;14.77;10.00;;;22.40;99.90;;;;;;5050023;28;20495;-66
2022/08/18 03:16:30;;;;;;;13.52;10.07;;;22.40;99.90;;;;;;5053129;28;20238;-68
2022/08/18 03:18:57;;;;;;;14.00;10.43;;;22.40;99.90;;;;;;5050195;28;20243;-68
2022/08/18 03:21:26;;;;;;;12.23;10.07;;;22.30;99.90;;;;;;5049780;28;20223;-68
2022/08/18 03:23:55;;;;;;;10.82;9.15;;;22.30;99.90;;;;;;5049529;28;20202;-68
2022/08/18 03:26:29;;;;;;;12.23;10.38;;;22.30;99.90;;;;;;5049590;28;20229;-67
2022/08/18 03:28:58;;;;;;;14.18;10.50;;;22.20;99.90;;;;;;5050244;28;20205;-67
2022/08/18 03:31:30;;;;;;;12.85;10.25;;;22.20;99.90;;;;;;5049613;28;20194;-68
2022/08/18 03:33:58;;;;;;;13.05;10.50;;;22.30;99.90;;;;;;5056144;28;20537;-68
2022/08/18 03:36:29;;;;;;;13.20;9.90;;;22.30;99.90;;;;;;5069771;28;20214;-68
2022/08/18 03:38:56;;;;;;;13.95;10.30;;;22.30;99.90;;;;;;5069662;28;20645;-68
2022/08/18 03:41:26;;;;;;;13.30;10.50;;;22.40;99.90;;;;;;5067829;28;20286;-68
2022/08/18 03:44:14;;;;;;;11.63;9.68;;;22.20;99.90;;;;;;5053607;28;20195;-68
2022/08/18 03:46:42;;;;;;;11.88;9.50;;;22.10;99.90;;;;;;5053619;28;20218;-67
2022/08/18 03:49:09;;;;;;;11.80;10.10;;;22.00;99.90;;;;;;5053906;28;20244;-68
2022/08/18 03:51:37;;;;;;;14.90;11.02;;;22.00;99.90;;;;;;5053283;28;20688;-68
2022/08/18 03:54:04;;;;;;;14.55;11.23;;;22.10;99.90;;;;;;5053460;28;20670;-68
2022/08/18 03:56:34;;;;;;;13.27;10.70;;;22.00;99.90;;;;;;5035331;28;20215;-67
2022/08/18 03:59:06;;;;;;;12.48;9.73;;;22.10;99.90;;;;;;5053545;28;20202;-67
2022/08/18 04:01:38;;;;;;;10.90;9.20;;;22.20;99.90;;;;;;5053514;28;20280;-67
2022/08/18 04:04:08;;;;;;;13.30;9.50;;;22.10;99.90;;;;;;5053641;28;20509;-68
2022/08/18 04:06:44;;;;;;;12.95;9.93;;;21.90;99.90;;;;;;5053274;28;20246;-68
2022/08/18 04:09:13;;;;;;;15.85;9.80;;;21.80;99.90;;;;;;5053126;28;20198;-68
2022/08/18 04:11:42;;;;;;;13.10;10.30;;;21.60;99.90;;;;;;5053455;28;20225;-68
2022/08/18 04:14:12;;;;;;;13.10;10.25;;;21.50;99.90;;;;;;5053220;28;20194;-68
2022/08/18 04:16:40;;;;;;;13.65;9.88;;;21.60;99.90;;;;;;5040101;28;20713;-68
2022/08/18 04:19:07;;;;;;;12.73;9.60;;;21.50;99.90;;;;;;5053266;28;20210;-67
2022/08/18 04:21:37;;;;;;;15.50;10.23;;;21.40;99.90;;;;;;5052879;28;20214;-68
2022/08/18 04:24:06;;;;;;;19.15;10.43;;;21.40;99.90;;;;;;5053240;28;20203;-67
2022/08/18 04:26:36;;;;;;;16.10;10.77;;;21.50;99.90;;;;;;5052637;28;20215;-67
2022/08/18 04:29:04;;;;;;;16.40;10.05;;;21.50;99.90;;;;;;5053357;28;20191;-67
2022/08/18 04:31:31;;;;;;;15.82;9.57;;;21.40;99.90;;;;;;5052911;28;20871;-68
2022/08/18 04:33:59;;;;;;;11.77;9.00;;;21.30;99.90;;;;;;5052765;28;20203;-68
2022/08/18 04:36:28;;;;;;;13.77;10.07;;;21.30;99.90;;;;;;5034855;28;20776;-68
2022/08/18 04:38:55;;;;;;;12.20;9.75;;;21.30;99.90;;;;;;5054224;28;20198;-67
2022/08/18 04:41:25;;;;;;;12.02;9.15;;;21.30;99.90;;;;;;5052730;28;20779;-67
2022/08/18 04:43:57;;;;;;;14.10;10.43;;;21.30;99.90;;;;;;5052743;28;20187;-65
2022/08/18 04:46:24;;;;;;;12.73;9.50;;;21.40;99.90;;;;;;5052660;28;20234;-67
2022/08/18 04:48:57;;;;;;;14.52;10.43;;;21.50;99.90;;;;;;5052630;28;20187;-68
2022/08/18 04:51:27;;;;;;;13.75;10.35;;;21.80;99.90;;;;;;5044211;28;20221;-67
2022/08/18 04:54:14;;;;;;;12.52;10.02;;;22.00;99.90;;;;;;5071322;28;20323;-67
2022/08/18 04:56:41;;;;;;;13.98;10.95;;;22.00;99.90;;;;;;5072118;28;20210;-68
2022/08/18 04:59:10;;;;;;;15.07;10.73;;;21.90;99.90;;;;;;5072355;28;20220;-67
2022/08/18 05:01:44;;;;;;;12.27;9.88;;;21.90;99.90;;;;;;5057984;28;20219;-67
2022/08/18 05:04:13;;;;;;;14.50;10.70;;;21.80;99.90;;;;;;5052390;28;20303;-68
2022/08/18 05:06:41;;;;;;;13.55;9.75;;;21.90;99.90;;;;;;5051889;28;20211;-68
2022/08/18 05:09:10;;;;;;;14.20;9.98;;;21.70;99.90;;;;;;5052183;28;20199;-67
2022/08/18 05:11:37;;;;;;;15.02;10.35;;;21.70;99.90;;;;;;5051986;28;20195;-68
2022/08/18 05:14:06;;;;;;;16.63;11.02;;;21.70;99.90;;;;;;5052330;28;20252;-67
2022/08/18 05:16:35;;;;;;;12.18;10.30;;;21.70;99.90;;;;;;5051764;28;20284;-68
2022/08/18 05:19:15;;;;;;;14.40;10.82;;;21.70;99.90;;;;;;5051897;28;20194;-67
2022/08/18 05:21:45;;;;;;;14.77;10.25;;;21.80;99.90;;;;;;5051968;28;20215;-67
2022/08/18 05:24:16;;;;;;;13.70;10.52;;;21.70;99.90;;;;;;5051895;28;20201;-69
2022/08/18 05:26:43;;;;;;;13.95;10.85;;;21.70;99.90;;;;;;5033916;28;20218;-66
2022/08/18 05:29:10;;;;;;;13.13;10.30;;;21.70;99.90;;;;;;5051843;28;20202;-68
2022/08/18 05:31:45;;;;;;;12.10;9.55;;;21.80;99.90;;;;;;5051753;28;20566;-67
2022/08/18 05:34:12;;;;;;;12.77;10.43;;;21.90;99.90;;;;;;5051869;28;20198;-68
2022/08/18 05:36:45;;;;;;;13.38;11.27;;;21.90;99.90;;;;;;5050942;28;20230;-67
2022/08/18 05:39:18;;;;;;;16.75;10.32;;;21.90;99.90;;;;;;5034394;28;20199;-69
2022/08/18 05:41:59;;;;;;;12.35;10.05;;;22.10;99.90;;;;;;5051602;28;20789;-68
2022/08/18 05:44:28;;;;;;;12.82;9.95;;;22.20;99.90;;;;;;5051642;28;20195;-67
2022/08/18 05:47:17;;;;;;;15.95;10.57;;;22.20;99.90;;;;;;5050985;28;20215;-68
2022/08/18 05:49:49;;;;;;;13.23;10.00;;;22.20;99.90;;;;;;5043955;28;20210;-68
2022/08/18 05:52:44;;;;;;;14.32;10.23;;;22.30;99.90;;;;;;5051649;28;20206;-68
2022/08/18 05:58:36;;;;;;;13.82;9.98;;;22.30;99.90;;;;;;5051627;28;20194;-68
2022/08/18 06:01:17;;;;;;;14.30;10.55;;;22.30;99.90;;;;;;5051222;28;20214;-68
2022/08/18 06:03:55;;;;;;;11.70;9.77;;;22.30;99.90;;;;;;5035132;28;20191;-66
2022/08/18 06:06:28;;;;;;;11.20;8.35;;;22.20;99.90;;;;;;5051075;28;20234;-67
2022/08/18 06:09:22;;;;;;;12.65;9.80;;;22.10;99.90;;;;;;5051296;28;20210;-68
2022/08/18 06:11:52;;;;;;;12.27;10.07;;;22.20;99.90;;;;;;5050400;28;20199;-68
2022/08/18 06:14:19;;;;;;;12.45;10.13;;;22.30;99.90;;;;;;5051046;28;20687;-68
2022/08/18 06:17:17;;;;;;;12.85;10.18;;;22.50;99.90;;;;;;5050885;28;20237;-68
2022/08/18 06:20:01;;;;;;;10.05;8.80;;;22.60;99.90;;;;;;5051235;28;20681;-67
2022/08/18 06:22:51;;;;;;;12.68;9.77;;;22.70;99.90;;;;;;5051187;28;20191;-68
2022/08/18 06:25:34;;;;;;;12.65;10.40;;;22.70;99.90;;;;;;5050670;28;20238;-68
2022/08/18 06:28:21;;;;;;;13.88;11.23;;;22.80;99.90;;;;;;5050785;28;20194;-67
2022/08/18 06:31:05;;;;;;;13.02;9.80;;;22.90;99.90;;;;;;5049219;28;20689;-68
2022/08/18 06:33:49;;;;;;;14.20;10.32;;;23.00;99.90;;;;;;5050445;28;20205;-68
2022/08/18 06:36:38;;;;;;;14.95;10.70;;;23.20;99.90;;;;;;5050434;28;20265;-68
2022/08/18 06:39:16;;;;;;;15.27;10.98;;;23.30;99.90;;;;;;5050582;28;20605;-68
2022/08/18 06:41:47;;;;;;;13.05;10.07;;;23.40;99.90;;;;;;5050365;28;20222;-68
2022/08/18 06:44:49;;;;;;;14.18;10.50;;;23.40;99.90;;;;;;5050478;28;20191;-68
2022/08/18 06:47:39;;;;;;;13.00;10.60;;;23.30;99.90;;;;;;5056535;28;20224;-67
2022/08/18 06:50:12;;;;;;;14.65;10.20;;;23.20;99.90;;;;;;5050482;28;20201;-68
2022/08/18 06:52:52;;;;;;;14.50;10.07;;;22.90;99.90;;;;;;5050507;28;20202;-68
2022/08/18 06:55:50;;;;;;;13.75;10.73;;;22.70;99.90;;;;;;5049842;28;20246;-67
2022/08/18 06:58:17;;;;;;;14.80;11.57;;;22.70;99.90;;;;;;5050405;28;20201;-68
2022/08/18 07:00:50;;;;;;;14.63;11.40;;;22.70;99.90;;;;;;5050056;28;20218;-68
2022/08/18 07:03:39;;;;;;;16.13;12.55;;;22.60;99.90;;;;;;5050268;28;20203;-68
2022/08/18 07:06:24;;;;;;;16.10;12.55;;;22.70;99.90;;;;;;5049581;28;20233;-67
2022/08/18 07:08:53;;;;;;;16.52;11.60;;;22.70;99.90;;;;;;5050212;28;20191;-66
2022/08/18 07:11:30;;;;;;;15.55;12.05;;;22.70;99.90;;;;;;5049987;28;20199;-68
2022/08/18 07:14:20;;;;;;;18.17;12.38;;;22.70;99.90;;;;;;5049747;28;20194;-68
2022/08/18 07:16:48;;;;;;;17.52;12.07;;;22.70;99.90;;;;;;5048148;28;20230;-68
2022/08/18 07:19:29;;;;;;;14.25;10.38;;;22.90;99.90;;;;;;5049937;28;20260;-68
2022/08/18 07:22:09;;;;;;;12.80;10.57;;;22.80;99.90;;;;;;5049760;28;20227;-67
2022/08/18 07:24:54;;;;;;;17.05;11.23;;;23.00;99.90;;;;;;5049714;28;20190;-68
2022/08/18 07:27:47;;;;;;;13.77;10.35;;;23.20;99.90;;;;;;5049829;28;20202;-68
2022/08/18 07:30:20;;;;;;;13.65;10.38;;;23.40;99.90;;;;;;5049777;28;20249;-67
2022/08/18 07:33:03;;;;;;;10.88;9.15;;;23.60;99.90;;;;;;5049384;28;20298;-68
2022/08/18 07:35:48;;;;;;;12.05;9.13;;;23.70;99.90;;;;;;5049039;28;20214;-68
2022/08/18 07:38:38;;;;;;;13.82;10.00;;;23.90;99.90;;;;;;5049756;28;20201;-68
2022/08/18 07:41:41;;;;;;;10.98;9.00;;;24.10;99.90;;;;;;5049456;28;20222;-68
2022/08/18 07:44:26;;;;;;;12.07;9.45;;;24.20;99.90;;;;;;5031611;28;20297;-68
2022/08/18 07:47:11;;;;;;;14.02;11.15;;;24.40;99.90;;;;;;5050186;28;20700;-68
2022/08/18 07:49:40;;;;;;;14.93;11.13;;;24.50;99.90;;;;;;5049493;28;20198;-68
2022/08/18 07:52:38;;;;;;;12.55;10.63;;;24.60;99.90;;;;;;5049917;28;20577;-66
2022/08/18 07:55:34;;;;;;;13.05;10.93;;;24.70;99.90;;;;;;5049618;28;20744;-68
2022/08/18 07:58:30;;;;;;;12.35;10.02;;;24.80;99.90;;;;;;5049857;28;20605;-68
2022/08/18 08:01:28;;;;;;;13.50;10.85;;;24.80;99.90;;;;;;5049457;28;20353;-67
2022/08/18 08:04:08;;;;;;;14.65;11.18;;;24.80;99.90;;;;;;5032314;28;20198;-68
2022/08/18 08:07:09;;;;;;;13.10;10.93;;;24.70;99.90;;;;;;5048883;28;20713;-67
2022/08/18 08:10:25;;;;;;;15.02;11.63;;;24.70;99.90;;;;;;5049530;28;20201;-69
2022/08/18 08:13:14;;;;;;;15.10;11.60;;;24.60;99.90;;;;;;5049740;28;20307;-68
2022/08/18 08:16:17;;;;;;;16.10;11.18;;;24.60;99.90;;;;;;5049092;28;20218;-68
2022/08/18 08:19:14;;;;;;;16.70;11.60;;;24.40;99.90;;;;;;5049314;28;20205;-69
2022/08/18 08:21:59;;;;;;;13.35;10.95;;;24.10;99.90;;;;;;5049020;28;20623;-68
2022/08/18 08:24:55;;;;;;;14.55;11.18;;;24.00;99.90;;;;;;5049507;28;20285;-68
2022/08/18 08:27:44;;;;;;;12.65;10.55;;;23.90;99.90;;;;;;5054360;28;20202;-68
2022/08/18 08:30:14;;;;;;;14.45;10.88;;;23.90;99.90;;;;;;5053189;28;20195;-68
2022/08/18 08:33:01;;;;;;;15.68;11.32;;;24.00;99.90;;;;;;5052647;28;20203;-68
2022/08/18 08:36:00;;;;;;;13.90;11.32;;;24.00;99.90;;;;;;5052549;28;20718;-68
2022/08/18 08:38:43;;;;;;;13.77;11.40;;;24.10;99.90;;;;;;5042408;28;20202;-68
2022/08/18 08:41:27;;;;;;;14.43;11.30;;;24.10;99.90;;;;;;5052577;28;20238;-68
2022/08/18 08:44:08;;;;;;;13.38;10.32;;;24.20;99.90;;;;;;5052428;28;20662;-68
2022/08/18 08:46:50;;;;;;;14.13;10.68;;;24.40;99.90;;;;;;5052216;28;20222;-68
2022/08/18 08:49:26;;;;;;;12.98;10.73;;;24.60;99.90;;;;;;5052589;28;20218;-69
2022/08/18 08:52:04;;;;;;;15.43;10.50;;;24.90;99.90;;;;;;5052633;28;20260;-69
2022/08/18 08:54:50;;;;;;;14.35;10.32;;;25.00;99.90;;;;;;5052362;28;20205;-68
2022/08/18 08:57:19;;;;;;;12.55;9.80;;;25.20;99.90;;;;;;5052106;28;20219;-68
2022/08/18 08:59:48;;;;;;;18.05;10.57;;;25.30;99.90;;;;;;5052216;28;20237;-68
2022/08/18 09:02:53;;;;;;;16.40;11.43;;;25.60;99.90;;;;;;5052370;28;20245;-68
2022/08/18 09:05:25;;;;;;;15.40;10.00;;;26.00;99.90;;;;;;5052178;28;20214;-68
2022/08/18 09:08:07;;;;;;;12.27;9.90;;;26.30;99.90;;;;;;5052078;28;20195;-68
2022/08/18 09:11:04;;;;;;;15.55;10.73;;;26.30;99.90;;;;;;5052310;28;20194;-68
2022/08/18 09:14:02;;;;;;;11.48;9.50;;;26.50;99.90;;;;;;5052139;28;20203;-68
2022/08/18 09:17:03;;;;;;;12.70;10.50;;;26.80;99.90;;;;;;5051705;28;20229;-68
2022/08/18 09:19:38;;;;;;;12.43;10.15;;;27.20;99.90;;;;;;5017457;28;20205;-69
2022/08/18 09:22:11;;;;;;;12.52;11.00;;;27.50;99.90;;;;;;5054415;28;20221;-69
2022/08/18 09:24:46;;;;;;;14.15;10.50;;;27.30;99.90;;;;;;5072059;28;20194;-68
2022/08/18 09:27:29;;;;;;;14.00;11.05;;;27.00;99.90;;;;;;5060199;28;20225;-68
2022/08/18 09:29:59;;;;;;;12.63;10.73;;;26.70;99.90;;;;;;5052002;28;20621;-68
2022/08/18 09:32:26;;;;;;;12.18;10.20;;;26.50;99.90;;;;;;5052461;28;20206;-68
2022/08/18 09:34:59;;;;;;;12.15;10.43;;;26.70;99.90;;;;;;5052012;28;20725;-68
2022/08/18 09:37:32;;;;;;;14.23;11.43;;;26.60;99.90;;;;;;5055638;28;20325;-68
2022/08/18 09:43:36;;;;;;;16.45;11.43;;;26.20;99.90;;;;;;5051710;28;20256;-68
2022/08/18 09:46:04;;;;;;;13.75;11.77;;;26.30;99.90;;;;;;5051559;28;20214;-68
2022/08/18 09:48:38;;;;;;;14.15;12.27;;;26.30;99.90;;;;;;5052016;28;20195;-68
2022/08/18 09:51:17;;;;;;;15.10;11.23;;;26.20;99.90;;;;;;5051749;28;20202;-68
2022/08/18 09:53:44;;;;;;;18.85;11.93;;;26.20;99.90;;;;;;5051293;28;20205;-68
2022/08/18 09:56:16;;;;;;;16.40;12.38;;;25.80;99.90;;;;;;5051167;28;20215;-68
2022/08/18 09:58:59;;;;;;;15.40;12.43;;;25.70;99.90;;;;;;5051368;28;20609;-68
2022/08/18 10:01:29;;;;;;;14.57;12.20;;;25.70;99.90;;;;;;5051215;28;20210;-69
2022/08/18 10:04:13;;;;;;;15.05;11.75;;;25.70;99.90;;;;;;5059495;28;20203;-68
2022/08/18 10:06:43;;;;;;;15.35;11.70;;;25.60;99.90;;;;;;5050830;28;20218;-67
2022/08/18 10:09:29;;;;;;;16.50;12.25;;;25.70;99.90;;;;;;5051334;28;20199;-68
2022/08/18 10:12:28;;;;;;;14.85;11.45;;;25.30;99.90;;;;;;5051585;28;20260;-68
2022/08/18 10:15:11;;;;;;;14.02;12.23;;;25.20;99.90;;;;;;5050870;28;20207;-68
2022/08/18 10:18:13;;;;;;;15.85;12.23;;;25.20;99.90;;;;;;5059097;28;20772;-69
2022/08/18 10:20:57;;;;;;;17.42;12.98;;;25.10;99.90;;;;;;4968944;28;20252;-66
2022/08/18 10:23:50;;;;;;;15.20;12.00;;;25.00;99.90;;;;;;5062538;28;20194;-68
2022/08/18 10:26:37;;;;;;;15.82;11.98;;;25.00;99.90;;;;;;5070325;28;20236;-68
2022/08/18 10:29:10;;;;;;;15.93;12.25;;;24.80;99.90;;;;;;5058429;28;20195;-68
2022/08/18 10:31:58;;;;;;;16.27;12.05;;;24.90;99.90;;;;;;5050697;28;20199;-67
2022/08/18 10:34:49;;;;;;;16.88;12.07;;;25.10;99.90;;;;;;5050875;28;20214;-68
2022/08/18 10:37:43;;;;;;;14.95;11.50;;;25.10;99.90;;;;;;5050129;28;20191;-68
2022/08/18 10:40:12;;;;;;;15.75;12.15;;;25.20;99.90;;;;;;5050860;28;20202;-68
2022/08/18 10:42:59;;;;;;;15.63;12.85;;;25.20;99.90;;;;;;5050623;28;20785;-68
2022/08/18 10:45:30;;;;;;;16.30;12.43;;;25.20;99.90;;;;;;5050395;28;20210;-67
2022/08/18 10:48:04;;;;;;;16.65;13.43;;;25.20;99.90;;;;;;5050941;28;20203;-68
2022/08/18 10:50:47;;;;;;;15.30;12.70;;;25.20;99.90;;;;;;5050366;28;20202;-68
2022/08/18 10:53:29;;;;;;;17.73;12.63;;;25.40;99.90;;;;;;5050147;28;20198;-67
2022/08/18 10:56:24;;;;;;;17.55;12.57;;;25.50;99.90;;;;;;5049782;28;20662;-68
2022/08/18 10:59:31;;;;;;;16.08;12.60;;;25.50;99.90;;;;;;5050348;28;20270;-66
2022/08/18 11:02:30;;;;;;;14.63;12.18;;;25.40;99.90;;;;;;5040962;28;20219;-67
2022/08/18 11:04:57;;;;;;;14.32;10.93;;;25.60;99.90;;;;;;5049853;28;20191;-68
2022/08/18 11:07:30;;;;;;;11.57;10.05;;;25.90;99.90;;;;;;5050006;28;20290;-68
2022/08/18 11:10:22;;;;;;;12.73;10.38;;;26.30;99.90;;;;;;5055803;28;20190;-67
2022/08/18 11:13:30;;;;;;;13.10;10.35;;;26.30;99.90;;;;;;5064588;28;20195;-68
2022/08/18 11:16:35;;;;;;;12.63;10.82;;;26.60;99.90;;;;;;5031822;28;20217;-68
2022/08/18 11:19:13;;;;;;;12.43;10.32;;;27.40;99.90;;;;;;4979886;28;20285;-67
2022/08/18 11:21:45;;;;;;;12.63;9.95;;;27.70;99.90;;;;;;5060970;28;20211;-67
2022/08/18 11:24:22;;;;;;;13.75;11.15;;;28.10;99.90;;;;;;5049842;28;20226;-68
2022/08/18 11:27:00;;;;;;;14.43;11.02;;;28.50;99.90;;;;;;5049559;28;20817;-68
2022/08/18 11:29:31;;;;;;;13.27;11.00;;;28.30;99.90;;;;;;5049885;28;20575;-69
2022/08/18 11:32:01;;;;;;;12.93;10.25;;;27.90;99.90;;;;;;5049671;28;20715;-67
2022/08/18 11:34:39;;;;;;;18.30;12.20;;;28.00;99.90;;;;;;5050005;28;20206;-68
2022/08/18 11:37:32;;;;;;;18.58;11.45;;;28.20;99.90;;;;;;5049977;28;20234;-68
2022/08/18 11:40:17;;;;;;;14.30;11.35;;;28.20;99.90;;;;;;5050053;28;20283;-67
2022/08/18 11:43:13;;;;;;;15.63;12.48;;;28.60;99.90;;;;;;5049715;28;20214;-68
2022/08/18 11:46:09;;;;;;;17.40;11.63;;;28.50;99.90;;;;;;5049676;28;20291;-66
2022/08/18 11:48:44;;;;;;;14.40;11.38;;;28.50;99.90;;;;;;5050014;28;20264;-68
2022/08/18 11:51:23;;;;;;;13.90;10.25;;;28.70;99.90;;;;;;5049667;28;20191;-68
2022/08/18 11:53:52;;;;;;;12.18;10.23;;;28.90;99.90;;;;;;5049643;28;20281;-68
2022/08/18 11:56:29;;;;;;;12.27;10.00;;;28.80;99.90;;;;;;5049345;28;20604;-68
2022/08/18 11:59:31;;;;;;;12.15;9.32;;;28.30;99.90;;;;;;5049610;28;20445;-69
2022/08/18 12:02:19;;;;;;;10.50;8.77;;;28.30;99.90;;;;;;5050126;28;20774;-67
2022/08/18 12:04:51;;;;;;;11.23;8.77;;;28.30;99.90;;;;;;5053632;28;20195;-69
2022/08/18 12:07:30;;;;;;;10.98;8.48;;;28.60;99.90;;;;;;5053288;28;20294;-68
2022/08/18 12:10:22;;;;;;;12.18;9.48;;;29.00;99.90;;;;;;5053675;28;20633;-68
2022/08/18 12:12:54;;;;;;;11.35;9.15;;;29.10;99.90;;;;;;5053163;28;20623;-68
2022/08/18 12:15:33;;;;;;;12.10;8.45;;;29.30;99.90;;;;;;5053201;28;20219;-68
2022/08/18 12:18:16;;;;;;;14.45;9.70;;;29.70;99.90;;;;;;5053636;28;20260;-68
2022/08/18 12:20:55;;;;;;;10.25;8.73;;;29.40;99.90;;;;;;5052979;28;20692;-66
2022/08/18 12:23:23;;;;;;;8.85;7.85;;;29.50;99.90;;;;;;5053312;28;20273;-68
2022/08/18 12:25:49;;;;;;;9.55;8.35;;;29.80;99.90;;;;;;5052819;28;20222;-68
2022/08/18 12:28:18;;;;;;;12.32;9.48;;;30.10;99.90;;;;;;5053062;28;20199;-68
2022/08/18 12:30:48;;;;;;;10.25;8.57;;;30.50;99.90;;;;;;5053551;28;20197;-68
2022/08/18 12:33:23;;;;;;;11.85;8.82;;;30.30;99.90;;;;;;5053073;28;20733;-68
2022/08/18 12:36:02;;;;;;;9.00;7.95;;;30.50;99.90;;;;;;5052380;28;20309;-68
2022/08/18 12:38:31;;;;;;;11.02;8.35;;;30.80;99.90;;;;;;5053320;28;20370;-68
2022/08/18 12:41:02;;;;;;;9.50;7.65;;;31.20;99.90;;;;;;5052978;28;20230;-69
2022/08/18 12:43:28;;;;;;;11.07;8.20;;;31.50;99.90;;;;;;5053269;28;20748;-68
2022/08/18 12:45:58;;;;;;;9.13;7.57;;;31.00;99.90;;;;;;5052733;28;20732;-68
2022/08/18 12:48:28;;;;;;;12.05;8.77;;;30.90;99.90;;;;;;5052883;28;20199;-68
2022/08/18 12:50:55;;;;;;;10.63;8.90;;;30.80;99.90;;;;;;5052942;28;20599;-67
2022/08/18 12:53:25;;;;;;;15.27;8.10;;;30.80;99.90;;;;;;5052828;28;20443;-68
2022/08/18 12:56:13;;;;;;;9.68;8.48;;;31.00;99.90;;;;;;5064503;28;20275;-68
2022/08/18 12:58:39;;;;;;;8.35;7.45;;;31.10;99.90;;;;;;5072773;28;20198;-68
2022/08/18 13:01:06;;;;;;;11.38;9.20;;;31.20;99.90;;;;;;5065837;28;20218;-68
2022/08/18 13:03:33;;;;;;;10.65;8.02;;;31.10;99.90;;;;;;5034883;28;20578;-68
2022/08/18 13:06:03;;;;;;;12.45;8.70;;;31.20;99.90;;;;;;5052033;28;20211;-68
2022/08/18 13:08:31;;;;;;;10.30;7.82;;;31.30;99.90;;;;;;5052609;28;20281;-68
2022/08/18 13:11:09;;;;;;;9.93;8.48;;;31.30;99.90;;;;;;5053204;28;20195;-68
2022/08/18 13:13:51;;;;;;;14.88;7.72;;;31.20;99.90;;;;;;5051308;28;20232;-69
2022/08/18 13:16:24;;;;;;;15.93;8.85;;;31.30;99.90;;;;;;5052256;28;20219;-68
2022/08/18 13:19:13;;;;;;;8.63;7.60;;;31.20;99.90;;;;;;5038365;28;20264;-68
2022/08/18 13:21:40;;;;;;;9.40;8.13;;;31.20;99.90;;;;;;5052306;28;20199;-69
2022/08/18 13:24:09;;;;;;;9.73;8.07;;;31.30;99.90;;;;;;5052301;28;20253;-68
2022/08/18 13:26:42;;;;;;;12.85;7.70;;;31.30;99.90;;;;;;5051668;28;20296;-68
2022/08/18 13:29:13;;;;;;;13.40;8.18;;;31.60;99.90;;;;;;5052204;28;20205;-68
2022/08/18 13:31:39;;;;;;;11.45;8.30;;;31.90;99.90;;;;;;5051870;28;20195;-68